Time;durP1;ratioP1;P1;durP2;ratioP2;P2;SDS_P1;SDS_P2;PMS_P1;PMS_P2;Temp;Humidity;BMP_temperature;BMP_pressure;BME280_temperature;BME280_humidity;BME280_pressure;Samples;Min_cycle;Max_cycle;Signal;HPM_P1;HPM_P2
2022/08/09 00:02:17;;;;;;;3.53;1.85;;;29.00;32.10;;;;;;5978700;29;20088;-74
2022/08/09 00:05:20;;;;;;;2.00;1.70;;;29.00;32.40;;;;;;6007784;29;20037;-74
2022/08/09 00:08:21;;;;;;;3.00;1.85;;;28.90;32.70;;;;;;6009462;29;20029;-74
2022/08/09 00:11:23;;;;;;;1.73;1.60;;;28.90;32.80;;;;;;6008910;29;20054;-75
2022/08/09 00:14:24;;;;;;;2.22;1.75;;;28.90;33.00;;;;;;6008421;29;20084;-74
2022/08/09 00:17:25;;;;;;;2.50;1.90;;;28.90;33.10;;;;;;6008676;29;20097;-74
2022/08/09 00:20:26;;;;;;;5.80;1.80;;;28.90;33.20;;;;;;6008859;29;20474;-74
2022/08/09 00:23:27;;;;;;;2.28;2.05;;;28.80;33.20;;;;;;6008367;29;20065;-74
2022/08/09 00:26:29;;;;;;;1.98;1.77;;;28.80;33.30;;;;;;6008968;29;20113;-74
2022/08/09 00:29:29;;;;;;;6.53;1.90;;;28.80;33.30;;;;;;6008256;29;20038;-74
2022/08/09 00:32:31;;;;;;;10.68;2.22;;;28.80;33.40;;;;;;5993043;29;20041;-74
2022/08/09 00:35:31;;;;;;;2.90;2.00;;;28.70;33.50;;;;;;6008290;29;20177;-74
2022/08/09 00:38:32;;;;;;;4.70;2.13;;;28.70;33.50;;;;;;6008908;29;20048;-74
2022/08/09 00:41:34;;;;;;;2.75;1.58;;;28.70;33.60;;;;;;5993336;29;20109;-74
2022/08/09 00:44:34;;;;;;;6.30;2.30;;;28.60;33.60;;;;;;6007208;29;20037;-74
2022/08/09 00:47:35;;;;;;;5.68;1.75;;;28.60;33.70;;;;;;5992278;29;20053;-73
2022/08/09 00:50:37;;;;;;;4.10;2.15;;;28.50;33.80;;;;;;5983323;29;20102;-74
2022/08/09 00:53:38;;;;;;;2.55;1.90;;;28.50;33.80;;;;;;6008163;29;20034;-74
2022/08/09 00:56:39;;;;;;;4.35;1.92;;;28.50;33.90;;;;;;6007845;29;20050;-73
2022/08/09 00:59:43;;;;;;;3.15;1.55;;;28.50;33.90;;;;;;6008896;29;20523;-74
2022/08/09 01:02:48;;;;;;;2.03;1.70;;;28.40;34.00;;;;;;6007199;29;20042;-74
2022/08/09 01:05:58;;;;;;;2.63;1.98;;;28.40;34.10;;;;;;6025380;29;20118;-73
2022/08/09 01:09:26;;;;;;;3.33;2.00;;;28.40;34.10;;;;;;6022450;29;20041;-74
2022/08/09 01:12:41;;;;;;;2.58;1.65;;;28.40;34.10;;;;;;6024524;29;20038;-73
2022/08/09 01:15:45;;;;;;;2.35;1.88;;;28.30;34.00;;;;;;6009611;29;20045;-74
2022/08/09 01:18:48;;;;;;;8.57;2.33;;;28.40;34.20;;;;;;6007340;29;20046;-74
2022/08/09 01:22:23;;;;;;;6.82;2.10;;;28.30;34.20;;;;;;6023273;29;20038;-73
2022/08/09 01:25:24;;;;;;;4.85;1.85;;;28.30;34.20;;;;;;6003617;29;20050;-73
2022/08/09 01:28:25;;;;;;;1.67;1.52;;;28.30;34.20;;;;;;6006654;29;20073;-73
2022/08/09 01:31:29;;;;;;;3.75;2.03;;;28.20;34.30;;;;;;6005271;29;20053;-74
2022/08/09 01:34:34;;;;;;;2.95;2.00;;;28.20;34.30;;;;;;6005689;29;20073;-73
2022/08/09 01:37:38;;;;;;;5.07;2.22;;;28.20;34.40;;;;;;6019626;29;20038;-72
2022/08/09 01:41:12;;;;;;;4.22;2.17;;;28.10;34.30;;;;;;6005691;29;20079;-73
2022/08/09 01:44:15;;;;;;;2.50;1.77;;;28.10;34.40;;;;;;5969308;29;20048;-73
2022/08/09 01:47:17;;;;;;;3.03;1.88;;;28.10;34.50;;;;;;6006416;29;20030;-72
2022/08/09 01:50:22;;;;;;;2.55;1.80;;;28.00;34.50;;;;;;5990402;29;20073;-75
2022/08/09 01:53:25;;;;;;;2.35;1.75;;;28.00;34.60;;;;;;6007411;29;20117;-74
2022/08/09 01:56:29;;;;;;;6.00;2.08;;;27.90;34.60;;;;;;6006906;29;20046;-74
2022/08/09 01:59:32;;;;;;;2.90;1.60;;;27.90;34.70;;;;;;6006619;29;20118;-74
2022/08/09 02:02:37;;;;;;;5.18;2.38;;;27.90;34.90;;;;;;5984775;29;20038;-74
2022/08/09 02:05:41;;;;;;;4.50;1.60;;;27.80;35.00;;;;;;5990622;29;20042;-74
2022/08/09 02:08:44;;;;;;;4.35;2.45;;;27.70;35.00;;;;;;5991404;29;20081;-74
2022/08/09 02:11:45;;;;;;;3.47;1.77;;;27.70;35.10;;;;;;6010198;29;20038;-74
2022/08/09 02:14:49;;;;;;;6.50;2.25;;;27.70;35.20;;;;;;5990670;29;20046;-73
2022/08/09 02:17:53;;;;;;;2.75;1.70;;;27.70;35.30;;;;;;5991742;29;20050;-74
2022/08/09 02:21:09;;;;;;;2.08;1.88;;;27.60;35.40;;;;;;6006998;29;20121;-74
2022/08/09 02:24:13;;;;;;;2.25;1.50;;;27.50;35.40;;;;;;5981793;29;20508;-73
2022/08/09 02:27:17;;;;;;;6.75;1.73;;;27.50;35.50;;;;;;6005291;29;20041;-74
2022/08/09 02:30:18;;;;;;;4.43;1.98;;;27.50;35.70;;;;;;5992318;29;20094;-75
2022/08/09 02:33:30;;;;;;;3.72;1.85;;;27.50;35.80;;;;;;5992223;29;20038;-73
2022/08/09 02:36:41;;;;;;;5.47;1.80;;;27.40;35.80;;;;;;5991030;29;20117;-73
2022/08/09 02:39:48;;;;;;;2.80;1.73;;;27.40;35.80;;;;;;6004295;29;20030;-74
2022/08/09 02:42:51;;;;;;;3.83;2.13;;;27.40;35.90;;;;;;6000900;29;20413;-73
2022/08/09 02:45:54;;;;;;;3.42;2.35;;;27.40;36.10;;;;;;6006655;29;20343;-74
2022/08/09 02:49:03;;;;;;;2.35;1.90;;;27.40;36.30;;;;;;6010123;29;20041;-73
2022/08/09 02:52:06;;;;;;;5.60;2.67;;;27.30;36.50;;;;;;6011266;29;20048;-74
2022/08/09 02:55:10;;;;;;;4.07;2.10;;;27.20;36.50;;;;;;6009526;29;20045;-73
2022/08/09 02:58:13;;;;;;;3.42;1.90;;;27.20;36.50;;;;;;6032071;29;20076;-74
2022/08/09 03:01:16;;;;;;;3.30;2.15;;;27.20;36.70;;;;;;6008829;29;20438;-74
2022/08/09 03:04:18;;;;;;;3.58;2.17;;;27.10;36.80;;;;;;6008097;29;20045;-73
2022/08/09 03:11:41;;;;;;;2.15;1.63;;;27.10;36.90;;;;;;6013587;29;20050;-73
2022/08/09 03:14:43;;;;;;;2.22;1.73;;;27.00;36.90;;;;;;6013445;29;20523;-74
2022/08/09 03:17:45;;;;;;;7.55;1.48;;;27.00;37.00;;;;;;6014382;29;20101;-74
2022/08/09 03:20:47;;;;;;;4.88;1.95;;;27.00;37.10;;;;;;6013431;29;20070;-73
2022/08/09 03:23:49;;;;;;;1.98;1.58;;;27.00;37.10;;;;;;6011731;29;20049;-73
2022/08/09 03:26:52;;;;;;;1.48;1.30;;;26.90;37.30;;;;;;6011353;29;20102;-73
2022/08/09 03:29:53;;;;;;;5.13;1.77;;;26.80;37.40;;;;;;6011785;29;20053;-74
2022/08/09 03:32:57;;;;;;;3.08;1.88;;;26.80;37.80;;;;;;6011727;29;20094;-73
2022/08/09 03:35:58;;;;;;;2.08;1.50;;;26.70;38.10;;;;;;6025126;29;20134;-75
2022/08/09 03:38:59;;;;;;;1.73;1.38;;;26.70;38.20;;;;;;6014253;29;20495;-73
2022/08/09 03:42:00;;;;;;;3.05;2.03;;;26.60;38.20;;;;;;6008617;29;20062;-74
2022/08/09 03:45:01;;;;;;;2.10;1.77;;;26.60;38.20;;;;;;6011977;29;20049;-74
2022/08/09 03:48:02;;;;;;;2.75;1.70;;;26.50;38.30;;;;;;6011373;29;20049;-74
2022/08/09 03:51:07;;;;;;;5.05;1.67;;;26.50;38.40;;;;;;6011258;29;20075;-73
2022/08/09 03:54:10;;;;;;;5.40;2.55;;;26.50;38.50;;;;;;6012284;29;20061;-73
2022/08/09 03:57:14;;;;;;;2.45;1.75;;;26.40;38.60;;;;;;6010795;29;20125;-72
2022/08/09 04:00:16;;;;;;;5.72;2.47;;;26.40;38.70;;;;;;6011326;29;20042;-73
2022/08/09 04:03:17;;;;;;;3.25;2.30;;;26.40;38.70;;;;;;6011839;29;20393;-74
2022/08/09 04:06:19;;;;;;;3.08;2.38;;;26.30;38.80;;;;;;5995941;29;20046;-73
2022/08/09 04:09:20;;;;;;;3.08;1.92;;;26.30;38.90;;;;;;5995781;29;20062;-74
2022/08/09 04:12:32;;;;;;;5.60;2.10;;;26.30;39.00;;;;;;6025382;29;20042;-74
2022/08/09 04:15:32;;;;;;;3.10;2.22;;;26.30;39.10;;;;;;6009482;29;20134;-74
2022/08/09 04:18:33;;;;;;;8.10;2.22;;;26.30;39.10;;;;;;6009585;29;20038;-74
2022/08/09 04:21:34;;;;;;;5.20;2.33;;;26.30;39.20;;;;;;6010963;29;20079;-73
2022/08/09 04:24:35;;;;;;;3.05;2.08;;;26.30;39.10;;;;;;6009330;29;20048;-72
2022/08/09 04:27:40;;;;;;;2.45;2.03;;;26.20;39.00;;;;;;6010253;29;20053;-72
2022/08/09 04:30:41;;;;;;;2.53;2.17;;;26.20;39.10;;;;;;6009119;29;20030;-73
2022/08/09 04:33:41;;;;;;;5.90;2.67;;;26.20;39.30;;;;;;6012413;29;20037;-74
2022/08/09 04:36:42;;;;;;;3.60;2.10;;;26.20;39.40;;;;;;6010298;29;20369;-73
2022/08/09 04:39:43;;;;;;;9.90;2.38;;;26.20;39.50;;;;;;6010380;29;20050;-74
2022/08/09 04:42:44;;;;;;;6.03;2.50;;;26.10;39.60;;;;;;6026385;29;20080;-74
2022/08/09 04:45:45;;;;;;;5.97;2.45;;;26.10;39.70;;;;;;6010011;29;20132;-74
2022/08/09 04:48:46;;;;;;;4.30;2.50;;;26.10;39.80;;;;;;6009865;29;20072;-74
2022/08/09 04:51:47;;;;;;;3.83;2.13;;;26.00;39.80;;;;;;6008177;29;20057;-74
2022/08/09 04:54:50;;;;;;;3.25;2.08;;;26.00;40.50;;;;;;6007536;29;20421;-73
2022/08/09 04:57:51;;;;;;;6.32;2.30;;;26.00;39.90;;;;;;6008347;29;20056;-74
2022/08/09 05:00:52;;;;;;;8.90;2.63;;;26.00;40.00;;;;;;6012783;29;20121;-73
2022/08/09 05:03:53;;;;;;;3.83;2.40;;;26.00;40.10;;;;;;6026824;29;20046;-73
2022/08/09 05:06:54;;;;;;;3.20;2.10;;;25.90;40.10;;;;;;6008643;29;20049;-74
2022/08/09 05:09:55;;;;;;;2.95;2.28;;;25.90;40.10;;;;;;6015277;29;20337;-73
2022/08/09 05:12:56;;;;;;;6.30;2.63;;;26.00;40.10;;;;;;6008273;29;20098;-73
2022/08/09 05:15:57;;;;;;;7.07;2.50;;;26.00;40.00;;;;;;5995798;29;20089;-73
2022/08/09 05:18:58;;;;;;;4.45;2.50;;;26.10;40.00;;;;;;6009079;29;20042;-73
2022/08/09 05:21:58;;;;;;;3.80;2.53;;;26.10;39.90;;;;;;6012442;29;20095;-74
2022/08/09 05:25:00;;;;;;;5.25;2.40;;;26.10;39.80;;;;;;6006609;29;20046;-73
2022/08/09 05:28:01;;;;;;;3.50;2.47;;;26.10;39.80;;;;;;6008431;29;20033;-73
2022/08/09 05:31:02;;;;;;;3.70;2.00;;;26.10;39.80;;;;;;6008469;29;20058;-73
2022/08/09 05:34:03;;;;;;;3.72;2.28;;;26.20;39.70;;;;;;6021764;29;20045;-73
2022/08/09 05:37:05;;;;;;;4.28;2.13;;;26.20;39.70;;;;;;6007289;29;20050;-73
2022/08/09 05:40:08;;;;;;;2.67;2.22;;;26.20;39.80;;;;;;6008913;29;20064;-73
2022/08/09 05:43:09;;;;;;;8.30;2.13;;;26.20;39.90;;;;;;6008107;29;20429;-73
2022/08/09 05:46:10;;;;;;;6.32;1.85;;;26.20;39.90;;;;;;6022967;29;20046;-74
2022/08/09 05:49:11;;;;;;;3.72;1.75;;;26.20;40.00;;;;;;6007228;29;20046;-73
2022/08/09 05:52:12;;;;;;;4.03;2.15;;;26.20;39.90;;;;;;6008582;29;20337;-73
2022/08/09 05:55:13;;;;;;;7.72;1.85;;;26.30;40.40;;;;;;6008365;29;20052;-73
2022/08/09 05:58:14;;;;;;;2.78;2.00;;;26.20;39.60;;;;;;6006774;29;20038;-74
2022/08/09 06:01:15;;;;;;;5.63;1.70;;;26.20;39.50;;;;;;6008637;29;20107;-72
2022/08/09 06:04:16;;;;;;;4.97;2.22;;;26.30;39.50;;;;;;6011984;29;20106;-72
2022/08/09 06:07:17;;;;;;;10.88;2.28;;;26.30;39.40;;;;;;5982949;29;20069;-73
2022/08/09 06:10:18;;;;;;;4.57;2.15;;;26.30;39.40;;;;;;6007813;29;20037;-73
2022/08/09 06:13:19;;;;;;;14.50;2.50;;;26.40;39.50;;;;;;6007188;29;20022;-73
2022/08/09 06:16:22;;;;;;;2.63;1.80;;;26.30;39.30;;;;;;6008500;29;20387;-73
2022/08/09 06:19:22;;;;;;;10.25;2.03;;;26.40;39.40;;;;;;6010213;29;20038;-73
2022/08/09 06:22:23;;;;;;;8.57;2.20;;;26.40;39.50;;;;;;6012002;29;20439;-74
2022/08/09 06:25:24;;;;;;;4.97;1.70;;;26.40;39.40;;;;;;6027066;29;20045;-74
2022/08/09 06:28:25;;;;;;;6.47;2.05;;;26.50;39.40;;;;;;6012720;29;20111;-73
2022/08/09 06:31:26;;;;;;;12.73;2.63;;;26.50;39.30;;;;;;6015521;29;20460;-73
2022/08/09 06:34:27;;;;;;;16.92;2.78;;;26.50;39.30;;;;;;6012555;29;20037;-74
2022/08/09 06:37:28;;;;;;;7.22;2.20;;;26.60;39.30;;;;;;6011994;29;20034;-74
2022/08/09 06:40:29;;;;;;;9.48;2.00;;;26.60;39.20;;;;;;5994673;29;20526;-74
2022/08/09 06:43:31;;;;;;;5.43;2.05;;;26.70;39.10;;;;;;6011529;29;20066;-73
2022/08/09 06:46:31;;;;;;;4.53;2.05;;;26.80;39.10;;;;;;6012225;29;20038;-74
2022/08/09 06:49:32;;;;;;;7.03;2.22;;;26.90;39.00;;;;;;5995442;29;20045;-74
2022/08/09 06:52:33;;;;;;;8.38;2.47;;;26.90;38.90;;;;;;5995508;29;20037;-73
2022/08/09 06:55:34;;;;;;;11.05;2.55;;;27.00;39.00;;;;;;5994894;29;20089;-73
2022/08/09 06:58:36;;;;;;;11.68;2.13;;;27.00;38.90;;;;;;5978870;29;20030;-73
2022/08/09 07:01:37;;;;;;;2.78;2.00;;;27.10;38.90;;;;;;6012014;29;20084;-73
2022/08/09 07:04:37;;;;;;;8.00;2.17;;;27.20;38.80;;;;;;5995691;29;20077;-73
2022/08/09 07:07:38;;;;;;;5.35;2.00;;;27.30;38.70;;;;;;6011919;29;20050;-73
2022/08/09 07:10:39;;;;;;;5.10;2.63;;;27.40;38.60;;;;;;5994338;29;20053;-73
2022/08/09 07:13:40;;;;;;;11.07;2.85;;;27.50;38.50;;;;;;6011091;29;20177;-73
2022/08/09 07:16:41;;;;;;;6.82;2.03;;;27.50;38.30;;;;;;5981753;29;20050;-73
2022/08/09 07:19:42;;;;;;;14.85;2.53;;;27.70;38.20;;;;;;6013671;29;20046;-73
2022/08/09 07:22:44;;;;;;;8.10;2.30;;;27.70;37.80;;;;;;6010159;29;20054;-73
2022/08/09 07:25:46;;;;;;;2.70;1.95;;;27.80;37.50;;;;;;6011183;29;20154;-73
2022/08/09 07:28:47;;;;;;;5.07;1.83;;;27.90;37.30;;;;;;5995944;29;20116;-74
2022/08/09 07:31:47;;;;;;;4.22;2.30;;;27.90;37.10;;;;;;5989437;29;20125;-73
2022/08/09 07:34:48;;;;;;;7.43;2.08;;;28.00;37.10;;;;;;6011119;29;20052;-74
2022/08/09 07:37:49;;;;;;;4.22;1.67;;;28.10;37.70;;;;;;6009586;29;20182;-73
2022/08/09 07:40:53;;;;;;;2.25;1.85;;;28.20;37.40;;;;;;5994773;29;20098;-75
2022/08/09 07:43:54;;;;;;;5.45;1.80;;;28.30;36.60;;;;;;5993417;29;20059;-74
2022/08/09 07:46:54;;;;;;;4.80;1.75;;;28.40;36.40;;;;;;5994657;29;20042;-74
2022/08/09 07:49:56;;;;;;;2.50;1.80;;;28.50;36.40;;;;;;5994277;29;20045;-73
2022/08/09 07:52:57;;;;;;;15.77;2.17;;;28.50;36.40;;;;;;6010336;29;20372;-74
2022/08/09 07:55:58;;;;;;;2.65;1.67;;;28.60;36.40;;;;;;5993992;29;20401;-74
2022/08/09 07:58:59;;;;;;;5.30;1.90;;;28.60;36.40;;;;;;6010215;29;20034;-75
2022/08/09 08:02:00;;;;;;;3.53;2.35;;;28.70;36.40;;;;;;6010806;29;20046;-75
2022/08/09 08:05:01;;;;;;;3.63;2.03;;;28.90;36.30;;;;;;6010461;29;20171;-74
2022/08/09 08:08:02;;;;;;;2.28;2.08;;;29.10;36.00;;;;;;6010027;29;20101;-74
2022/08/09 08:11:04;;;;;;;5.10;1.80;;;29.10;35.80;;;;;;5993753;29;20073;-74
2022/08/09 08:14:05;;;;;;;3.45;1.90;;;29.30;35.80;;;;;;6010122;29;20045;-74
2022/08/09 08:17:06;;;;;;;2.47;1.77;;;29.30;35.60;;;;;;6010295;29;20049;-73
2022/08/09 08:20:07;;;;;;;3.78;1.88;;;29.40;35.40;;;;;;6010135;29;20042;-73
2022/08/09 08:23:08;;;;;;;5.40;1.90;;;29.50;35.30;;;;;;6009779;29;20042;-74
2022/08/09 08:26:09;;;;;;;2.22;1.95;;;29.60;35.10;;;;;;6010016;29;20145;-73
2022/08/09 08:29:10;;;;;;;4.38;2.00;;;29.70;35.20;;;;;;6007973;29;20666;-73
2022/08/09 08:32:10;;;;;;;6.57;2.05;;;29.80;35.20;;;;;;6008919;29;20126;-73
2022/08/09 08:35:11;;;;;;;8.68;2.58;;;29.90;35.00;;;;;;6006754;29;20091;-74
2022/08/09 08:38:12;;;;;;;4.05;1.95;;;30.00;34.80;;;;;;6009818;29;20128;-74
2022/08/09 08:41:13;;;;;;;3.17;2.17;;;30.20;34.70;;;;;;5992293;29;20110;-74
2022/08/09 08:44:17;;;;;;;3.88;1.88;;;30.30;34.50;;;;;;5962360;29;20045;-74
2022/08/09 08:47:19;;;;;;;3.63;2.00;;;30.40;34.30;;;;;;6007958;29;20042;-73
2022/08/09 08:50:20;;;;;;;6.28;2.25;;;30.60;34.20;;;;;;5992450;29;20073;-75
2022/08/09 08:53:21;;;;;;;2.83;1.80;;;30.70;33.90;;;;;;6009454;29;20053;-72
2022/08/09 08:56:22;;;;;;;2.88;1.88;;;30.80;33.70;;;;;;5977562;29;20042;-73
2022/08/09 08:59:23;;;;;;;6.13;2.00;;;30.90;33.70;;;;;;5976955;29;20495;-73
2022/08/09 09:02:28;;;;;;;2.08;1.73;;;31.00;33.50;;;;;;5992776;29;20038;-74
2022/08/09 09:05:33;;;;;;;7.65;3.17;;;31.00;33.40;;;;;;5992819;29;20057;-73
2022/08/09 09:08:38;;;;;;;5.55;2.95;;;31.10;33.20;;;;;;5992190;29;20034;-73
2022/08/09 09:11:40;;;;;;;2.80;2.00;;;31.10;33.10;;;;;;6009014;29;20034;-75
2022/08/09 09:14:43;;;;;;;3.47;2.10;;;31.20;33.00;;;;;;6006629;29;20118;-74
2022/08/09 09:17:44;;;;;;;2.95;2.13;;;31.30;32.90;;;;;;5976445;29;20057;-74
2022/08/09 09:20:45;;;;;;;13.88;2.47;;;31.30;32.80;;;;;;6011179;29;20038;-74
2022/08/09 09:23:46;;;;;;;6.43;2.10;;;31.40;32.70;;;;;;6009329;29;20130;-73
2022/08/09 09:26:55;;;;;;;2.80;2.00;;;31.50;32.70;;;;;;5992376;29;20227;-73
2022/08/09 09:29:56;;;;;;;3.97;2.08;;;31.50;32.70;;;;;;5992446;29;20493;-73
2022/08/09 09:33:11;;;;;;;4.25;1.80;;;31.70;32.60;;;;;;5992201;29;20049;-71
2022/08/09 09:36:12;;;;;;;4.57;1.98;;;31.80;32.30;;;;;;5990995;29;20400;-72
2022/08/09 09:39:13;;;;;;;3.47;2.17;;;31.90;32.20;;;;;;6007226;29;20045;-71
2022/08/09 09:42:24;;;;;;;6.15;2.20;;;32.00;32.00;;;;;;5996491;29;20362;-72
2022/08/09 09:45:24;;;;;;;5.07;1.90;;;32.00;31.70;;;;;;6005892;29;20038;-71
2022/08/09 09:48:25;;;;;;;2.45;2.00;;;32.10;31.60;;;;;;6006483;29;20443;-71
2022/08/09 09:51:29;;;;;;;3.15;1.98;;;32.20;30.90;;;;;;6002165;29;20368;-71
2022/08/09 09:54:49;;;;;;;2.28;1.70;;;32.20;30.60;;;;;;6014870;29;20049;-70
2022/08/09 09:58:02;;;;;;;11.00;1.75;;;32.20;30.80;;;;;;6003043;29;20034;-71
2022/08/09 10:01:03;;;;;;;2.85;2.25;;;32.30;30.80;;;;;;6012083;29;20387;-71
2022/08/09 10:04:12;;;;;;;7.15;2.10;;;32.40;30.90;;;;;;6011310;29;20038;-71
2022/08/09 10:07:22;;;;;;;7.88;2.20;;;32.50;30.80;;;;;;6006053;29;20034;-71
2022/08/09 10:10:30;;;;;;;2.58;1.90;;;32.50;30.60;;;;;;6003665;29;20037;-70
2022/08/09 10:13:40;;;;;;;4.75;1.70;;;32.60;30.60;;;;;;6004935;29;20038;-70
2022/08/09 10:16:43;;;;;;;3.13;1.90;;;32.60;30.60;;;;;;6006547;29;20034;-70
2022/08/09 10:19:47;;;;;;;5.47;2.17;;;32.60;30.20;;;;;;6006731;29;20034;-70
2022/08/09 10:22:54;;;;;;;5.75;2.25;;;32.60;30.00;;;;;;6005445;29;20042;-71
2022/08/09 10:26:01;;;;;;;5.80;2.07;;;32.60;30.00;;;;;;6006416;29;20468;-71
2022/08/09 10:29:05;;;;;;;7.60;2.37;;;32.70;30.00;;;;;;6004856;29;20072;-71
2022/08/09 10:32:07;;;;;;;5.13;2.00;;;32.70;29.80;;;;;;6005102;29;20271;-71
2022/08/09 10:35:09;;;;;;;3.50;1.88;;;32.80;29.70;;;;;;6021638;29;20094;-71
2022/08/09 10:38:10;;;;;;;2.90;1.98;;;32.90;29.50;;;;;;6007220;29;20037;-70
2022/08/09 10:41:13;;;;;;;4.47;2.15;;;33.00;29.30;;;;;;6006661;29;20064;-71
2022/08/09 10:44:19;;;;;;;2.10;1.63;;;33.10;29.20;;;;;;6005695;29;20610;-71
2022/08/09 10:47:38;;;;;;;4.97;2.28;;;33.30;29.00;;;;;;5990923;29;20368;-70
2022/08/09 10:51:11;;;;;;;2.65;1.95;;;33.40;28.80;;;;;;5989337;29;20045;-71
2022/08/09 10:54:13;;;;;;;6.70;1.70;;;33.50;28.60;;;;;;5996234;29;20129;-71
2022/08/09 10:57:14;;;;;;;1.98;1.77;;;33.50;28.20;;;;;;5987072;29;20102;-70
2022/08/09 11:00:31;;;;;;;8.18;2.30;;;33.80;28.10;;;;;;6003371;29;20341;-70
2022/08/09 11:03:32;;;;;;;9.43;2.63;;;34.30;27.60;;;;;;5996557;29;20065;-71
2022/08/09 11:06:36;;;;;;;4.43;2.55;;;34.90;27.10;;;;;;5990435;29;20052;-70
2022/08/09 11:09:37;;;;;;;2.85;2.08;;;35.40;26.50;;;;;;6008728;29;20042;-71
2022/08/09 11:12:38;;;;;;;11.70;2.80;;;35.90;25.90;;;;;;5990433;29;20392;-70
2022/08/09 11:15:38;;;;;;;7.75;2.28;;;36.20;25.30;;;;;;6006735;29;20057;-71
2022/08/09 11:18:46;;;;;;;9.57;2.75;;;36.50;25.20;;;;;;6007424;29;20034;-72
2022/08/09 11:21:52;;;;;;;5.97;3.03;;;36.90;24.60;;;;;;5990323;29;20053;-71
2022/08/09 11:25:11;;;;;;;5.90;3.17;;;37.20;24.40;;;;;;5991469;29;20049;-71
2022/08/09 11:28:39;;;;;;;6.00;2.70;;;37.50;24.30;;;;;;6006383;29;20041;-71
2022/08/09 11:31:40;;;;;;;4.72;2.45;;;37.80;24.00;;;;;;6002005;29;20038;-72
2022/08/09 11:34:44;;;;;;;2.95;2.20;;;38.10;23.60;;;;;;5975725;29;20075;-72
2022/08/09 11:37:47;;;;;;;4.95;1.90;;;38.40;23.30;;;;;;5989366;29;20361;-71
2022/08/09 11:40:50;;;;;;;8.27;2.17;;;38.70;22.80;;;;;;6006630;29;21031;-73
2022/08/09 11:43:51;;;;;;;5.10;2.10;;;38.90;22.50;;;;;;5995251;29;20057;-70
2022/08/09 11:46:55;;;;;;;2.75;1.90;;;39.10;22.10;;;;;;5992170;29;20030;-69
2022/08/09 11:50:02;;;;;;;3.25;1.52;;;39.20;21.60;;;;;;6006210;29;20034;-70
2022/08/09 11:53:03;;;;;;;2.28;1.60;;;39.40;21.60;;;;;;5990294;29;20116;-70
2022/08/09 11:56:13;;;;;;;4.78;1.90;;;39.60;21.60;;;;;;6004114;29;20062;-71
2022/08/09 11:59:27;;;;;;;5.20;2.45;;;39.80;21.50;;;;;;6002900;29;20042;-70
2022/08/09 12:02:31;;;;;;;4.53;1.90;;;40.00;21.40;;;;;;5990114;29;20380;-71
2022/08/09 12:05:34;;;;;;;3.83;1.90;;;40.20;21.30;;;;;;6007112;29;20655;-71
2022/08/09 12:08:36;;;;;;;7.38;2.00;;;40.30;21.20;;;;;;6006840;29;20097;-71
2022/08/09 12:11:37;;;;;;;2.47;1.77;;;40.40;21.20;;;;;;6007712;29;20472;-71
2022/08/09 12:14:38;;;;;;;5.05;1.88;;;40.60;21.10;;;;;;6007680;29;20086;-71
2022/08/09 12:17:44;;;;;;;4.30;2.00;;;40.90;21.00;;;;;;6007277;29;20361;-71
2022/08/09 12:20:45;;;;;;;4.72;1.77;;;41.30;20.70;;;;;;5991321;29;20072;-71
2022/08/09 12:23:47;;;;;;;3.35;1.80;;;41.60;20.60;;;;;;6007138;29;20432;-71
2022/08/09 12:26:49;;;;;;;13.05;1.80;;;41.90;20.40;;;;;;6007709;29;20425;-71
2022/08/09 12:29:54;;;;;;;3.70;1.85;;;42.10;20.20;;;;;;6006916;29;20377;-71
2022/08/09 12:33:01;;;;;;;5.35;2.00;;;42.10;20.00;;;;;;5990561;29;20038;-71
2022/08/09 12:36:05;;;;;;;5.72;1.90;;;42.10;19.90;;;;;;6007732;29;20100;-71
2022/08/09 12:39:13;;;;;;;2.25;1.70;;;42.10;19.80;;;;;;6009043;29;20046;-70
2022/08/09 12:42:14;;;;;;;2.70;1.60;;;42.30;19.60;;;;;;5996816;29;20061;-71
2022/08/09 12:45:15;;;;;;;4.30;2.05;;;42.50;19.40;;;;;;5992139;29;20081;-71
2022/08/09 12:48:17;;;;;;;7.68;1.85;;;42.80;19.10;;;;;;6008054;29;20575;-71
2022/08/09 12:51:20;;;;;;;2.15;1.80;;;43.00;19.00;;;;;;5991747;29;20042;-70
2022/08/09 12:54:21;;;;;;;3.83;1.90;;;43.30;18.80;;;;;;6022369;29;20053;-70
2022/08/09 12:57:35;;;;;;;4.82;1.92;;;43.60;18.30;;;;;;6006568;29;20421;-70
2022/08/09 13:00:43;;;;;;;2.00;1.70;;;43.70;18.30;;;;;;6005425;29;20150;-70
2022/08/09 13:03:56;;;;;;;1.90;1.80;;;43.80;18.00;;;;;;6006454;29;20049;-71
2022/08/09 13:07:09;;;;;;;3.20;1.88;;;44.10;17.70;;;;;;6013695;29;20060;-70
2022/08/09 13:10:10;;;;;;;2.60;2.20;;;44.50;17.40;;;;;;6018940;29;20349;-71
2022/08/09 13:13:16;;;;;;;8.52;1.98;;;45.00;17.10;;;;;;6006910;29;20038;-71
2022/08/09 13:16:17;;;;;;;6.03;2.15;;;45.40;16.70;;;;;;6006090;29;20444;-71
2022/08/09 13:19:38;;;;;;;2.60;2.00;;;45.70;16.70;;;;;;6007831;29;20140;-71
2022/08/09 13:22:51;;;;;;;6.68;2.30;;;46.00;16.60;;;;;;6005469;29;20037;-71
2022/08/09 13:25:52;;;;;;;5.15;2.03;;;46.20;16.30;;;;;;6020922;29;20041;-71
2022/08/09 13:29:15;;;;;;;17.38;1.85;;;46.70;16.20;;;;;;6004555;29;20041;-71
2022/08/09 13:32:15;;;;;;;7.05;1.90;;;47.30;15.90;;;;;;6004718;29;20034;-71
2022/08/09 13:35:19;;;;;;;3.05;1.80;;;47.70;15.90;;;;;;6005102;29;20490;-71
2022/08/09 13:38:20;;;;;;;6.57;1.75;;;47.90;15.60;;;;;;5990468;29;20476;-70
2022/08/09 13:41:21;;;;;;;2.92;2.00;;;47.90;15.40;;;;;;6002601;29;20129;-71
2022/08/09 13:44:22;;;;;;;7.85;2.38;;;48.20;15.40;;;;;;6003212;29;20037;-71
2022/08/09 13:47:23;;;;;;;3.03;1.77;;;48.60;15.30;;;;;;5990180;29;20056;-70
2022/08/09 13:50:24;;;;;;;3.75;1.85;;;48.90;15.00;;;;;;6005243;29;20133;-70
2022/08/09 13:53:25;;;;;;;2.90;1.73;;;48.60;14.80;;;;;;6005904;29;20046;-70
2022/08/09 13:56:26;;;;;;;5.72;1.88;;;48.40;14.90;;;;;;5987951;29;20153;-71
2022/08/09 13:59:27;;;;;;;2.03;1.60;;;48.20;14.90;;;;;;6006323;29;20042;-70
2022/08/09 14:02:27;;;;;;;16.65;2.00;;;48.20;15.00;;;;;;5989491;29;20037;-71
2022/08/09 14:05:28;;;;;;;2.78;1.70;;;48.70;14.90;;;;;;6005525;29;20088;-70
2022/08/09 14:08:30;;;;;;;3.88;1.70;;;49.30;14.60;;;;;;6006194;29;20038;-70
2022/08/09 14:11:31;;;;;;;2.50;1.80;;;49.60;14.30;;;;;;6005801;29;20113;-70
2022/08/09 14:14:32;;;;;;;8.68;2.05;;;49.60;14.10;;;;;;5988740;29;20042;-70
2022/08/09 14:17:33;;;;;;;1.50;1.40;;;49.70;14.10;;;;;;6004896;29;20086;-70
2022/08/09 14:20:34;;;;;;;5.15;1.67;;;49.80;13.80;;;;;;5989770;29;20033;-70
2022/08/09 14:23:35;;;;;;;2.45;1.52;;;49.70;13.60;;;;;;5989451;29;20038;-71
2022/08/09 14:26:36;;;;;;;2.50;1.48;;;49.30;13.80;;;;;;6005584;29;20065;-71
2022/08/09 14:29:37;;;;;;;2.60;1.83;;;48.90;13.90;;;;;;6005897;29;20038;-71
2022/08/09 14:32:38;;;;;;;5.50;1.70;;;48.80;14.10;;;;;;5988634;29;20049;-71
2022/08/09 14:35:39;;;;;;;2.05;1.73;;;48.70;14.00;;;;;;5990887;29;20037;-71
2022/08/09 14:38:40;;;;;;;2.85;1.77;;;48.30;14.10;;;;;;5990472;29;20540;-71
2022/08/09 14:41:41;;;;;;;1.67;1.58;;;47.90;14.20;;;;;;5993271;29;20098;-71
2022/08/09 14:44:42;;;;;;;2.15;1.90;;;47.40;14.30;;;;;;6022568;29;20034;-71
2022/08/09 14:47:43;;;;;;;3.53;1.90;;;46.30;15.00;;;;;;6010185;29;20479;-71
2022/08/09 14:50:44;;;;;;;2.42;1.80;;;45.00;15.80;;;;;;6009958;29;20042;-70
2022/08/09 14:53:45;;;;;;;4.15;1.90;;;43.70;16.50;;;;;;6024155;29;20078;-70
2022/08/09 14:56:46;;;;;;;6.47;2.15;;;42.60;17.50;;;;;;6007639;29;20050;-70
2022/08/09 14:59:47;;;;;;;3.65;1.90;;;41.50;18.10;;;;;;6009534;29;20100;-70
2022/08/09 15:02:48;;;;;;;7.78;1.80;;;40.70;18.50;;;;;;6007936;29;20405;-70
2022/08/09 15:05:49;;;;;;;4.43;1.70;;;40.10;18.90;;;;;;6009325;29;20125;-71
2022/08/09 15:08:50;;;;;;;2.05;1.65;;;39.60;19.50;;;;;;6008390;29;20377;-70
2022/08/09 15:11:51;;;;;;;5.30;2.03;;;38.90;20.30;;;;;;6012164;29;20045;-71
2022/08/09 15:15:26;;;;;;;6.03;2.08;;;38.40;20.40;;;;;;6008153;29;20046;-70
2022/08/09 15:18:26;;;;;;;3.05;2.38;;;38.00;20.60;;;;;;6007303;29;20042;-70
2022/08/09 15:21:27;;;;;;;3.58;1.95;;;37.90;20.60;;;;;;6008788;29;20041;-71
2022/08/09 15:24:28;;;;;;;6.85;2.35;;;37.80;20.80;;;;;;6007961;29;20060;-71
2022/08/09 15:27:29;;;;;;;3.95;2.20;;;37.70;21.10;;;;;;6007330;29;20065;-71
2022/08/09 15:30:30;;;;;;;3.03;2.33;;;37.50;21.20;;;;;;6008849;29;20060;-70
2022/08/09 15:33:31;;;;;;;2.63;2.05;;;37.50;21.40;;;;;;6008970;29;20730;-71
2022/08/09 15:36:32;;;;;;;2.00;1.80;;;37.60;21.50;;;;;;6008902;29;20038;-70
2022/08/09 15:39:33;;;;;;;2.28;1.80;;;38.10;21.40;;;;;;6005520;29;20337;-71
2022/08/09 15:42:35;;;;;;;5.78;2.00;;;39.40;20.40;;;;;;6008230;29;20126;-70
2022/08/09 15:45:36;;;;;;;2.38;1.90;;;40.80;19.40;;;;;;5991307;29;22951;-70
2022/08/09 15:48:37;;;;;;;4.07;2.05;;;41.90;18.50;;;;;;5991401;29;20042;-70
2022/08/09 15:51:37;;;;;;;10.48;2.25;;;42.90;17.80;;;;;;6009666;29;20080;-70
2022/08/09 15:54:38;;;;;;;7.20;2.40;;;43.70;17.00;;;;;;5991281;29;20306;-70
2022/08/09 15:57:40;;;;;;;2.10;1.88;;;44.40;16.60;;;;;;5990167;29;20125;-70